Airfield :
LOGIN :

Register | Disclaimer

   EN    FR    IT 

 










Legend :    VFR   Marginal VFR   IFR   Intensive IFR   Very Intensive IFR
Visi :
Ceiling :
>= 8 km
>= 3000ft
5 to 8 km
1000 to 3000 ft
1500m to 5 km
500 to 1000 ft
800 to 1500m
200 to 500 ft
< 800m
< 200 ft
Symbols :   Thunderstorms  Fog  Heavy snow  Heavy precipitations  Wind > 20 kt
SIGMETs :     Misc.  Thunderstorms  Icing  Turbulence  Mountain Waves  Volcanic Ashes






- Airport Elevation : 359 ft
- IATA code : BVA


LFOB - Beauvais

CURRENT METAR :
  • 171900Z AUTO 25005KT CAVOK 05/02 Q1022 TEMPO 27017G27KT 3000 SHRA BKN015TCU

EXPIRED METARs :
  • 171830Z AUTO 24009KT CAVOK 06/02 Q1021 TEMPO 27017G27KT 3000 SHRA BKN015TCU
  • 171800Z AUTO 24012KT CAVOK 06/02 Q1021 TEMPO 27017G27KT 3000 SHRA BKN015TCU
  • 171730Z AUTO 24011KT CAVOK 07/02 Q1021 TEMPO 27020G30KT 3000 SHRA BKN015TCU
  • 171700Z AUTO 24010KT CAVOK 07/02 Q1020 TEMPO 27020G30KT 3000 SHRA BKN015TCU
  • 171630Z AUTO 26013KT 9999 FEW034 BKN098 07/02 Q1020 TEMPO 27020G30KT 3000 SHRA BKN015TCU

TAF TAF LFOB
Valid from the 17 at 18:00 until the 18 at 18:00 UTC


171700Z 1718/1818 27007KT 9999 SCT025
TEMPO 1718/1723 27017G27KT 3000 SHRA BKN015TCU
TEMPO 1723/1807 4000 SHRA
ATIS : +33 3 44 11 49 28



MET'MAP, your aeronautical weather chart ! - Copyright ORBIFLY December 2007 - Disclaimer

ORBIFLY MET'MAP TEAM :

Programming & Development : Alexandra Zaïnal
Concept & original design : Baudouin d'Aumeries
Assistance for programming : Marc-Olivier Méhu
Technical & hardware support : Manuel Goepfert

Contact : metmap@orbifly.com




SOURCES & CREDITS :

   NOAA